Gan Eden — WDE5779 — position and weather

sailwx.info

Track history (hours):
 
Tides and Currents Weather Stations Pressure Air Temp Water Temp Dewpoint Dewpoint Depression Visibility Wind Speed Wind Dir Waves Ship Positions

Gan Eden

Owner: Razin, Sheldon, Laguna Beach, CA. More information available from US FCC via Universal Licensing System and Coast Guard Vessel Documentation Center.

Last reported at 2018-Jan-22 04:02 UTC. Time now 2018-Feb-18 03:43 UTC.
Position N 32°36' W 117°25'.
Warning: this ship's position is 26 days out of date.

Length 21 m.

Type: Pleasure craft. MMSI: 367371520.

Date/timePositionNaut miles runAvg speedWind from/ knotsBaromVisibWave heightAir tempDewpointWater temp
2018-Jan-22 04:02N 32°36' W 117°25'110.3
2018-Jan-22 03:54N 32°37' W 117°25'410.2
2018-Jan-22 03:30N 32°41' W 117°26'510.3
2018-Jan-22 02:59N 32°46' W 117°27'510.2
2018-Jan-22 02:30N 32°51' W 117°27'510.1
2018-Jan-22 01:59N 32°56' W 117°28'510.1
2018-Jan-22 01:30N 33°01' W 117°30'510.2
2018-Jan-22 01:00N 33°06' W 117°33'510.0
2018-Jan-22 00:30N 33°10' W 117°36'4 8.8
2018-Jan-22 00:00N 33°12' W 117°40'510.0
2018-Jan-21 23:30N 33°17' W 117°42'6 9.9
2018-Jan-21 22:56N 33°22' W 117°44'  
2018-Jan-18 23:33N 33°37' W 117°55'0 0.0
2018-Jan-18 23:27N 33°37' W 117°55'  
Track history (hours):
 
Tides and Currents Weather Stations Pressure Air Temp Water Temp Dewpoint Dewpoint Depression Visibility Wind Speed Wind Dir Waves Ship Positions

Gan Eden

Owner: Razin, Sheldon, Laguna Beach, CA. More information available from US FCC via Universal Licensing System and Coast Guard Vessel Documentation Center.

Last reported at 2018-Jan-22 04:02 UTC. Time now 2018-Feb-18 03:43 UTC.
Position N 32°36' W 117°25'.
Warning: this ship's position is 26 days out of date.

Length 21 m.

Type: Pleasure craft. MMSI: 367371520.

Date/timePositionNaut miles runAvg speedWind from/ knotsBaromVisibWave heightAir tempDewpointWater temp
2018-Jan-22 04:02N 32°36' W 117°25'110.3
2018-Jan-22 03:54N 32°37' W 117°25'410.2
2018-Jan-22 03:30N 32°41' W 117°26'510.3
2018-Jan-22 02:59N 32°46' W 117°27'510.2
2018-Jan-22 02:30N 32°51' W 117°27'510.1
2018-Jan-22 01:59N 32°56' W 117°28'510.1
2018-Jan-22 01:30N 33°01' W 117°30'510.2
2018-Jan-22 01:00N 33°06' W 117°33'510.0
2018-Jan-22 00:30N 33°10' W 117°36'4 8.8
2018-Jan-22 00:00N 33°12' W 117°40'510.0
2018-Jan-21 23:30N 33°17' W 117°42'6 9.9
2018-Jan-21 22:56N 33°22' W 117°44'  
2018-Jan-18 23:33N 33°37' W 117°55'0 0.0
2018-Jan-18 23:27N 33°37' W 117°55'  

Dump ship's entire track history